createdAt,value
2022-10-31T00:02:34.124Z,50.57
2022-10-31T00:08:58.425Z,50.54
2022-10-31T00:15:22.613Z,50.51
2022-10-31T00:21:46.882Z,50.26
2022-10-31T00:28:11.241Z,50.40
2022-10-31T00:34:35.488Z,50.33
2022-10-31T00:40:59.687Z,50.25
2022-10-31T00:47:23.937Z,50.08
2022-10-31T00:53:48.249Z,50.19
2022-10-31T01:00:12.558Z,50.31
2022-10-31T01:06:39.549Z,50.29
2022-10-31T01:13:03.838Z,50.13
2022-10-31T01:19:27.536Z,50.03
2022-10-31T01:25:51.823Z,50.13
2022-10-31T01:32:16.524Z,49.94
2022-10-31T01:38:40.756Z,50.11
2022-10-31T01:45:05.080Z,49.96
2022-10-31T01:51:29.379Z,49.93
2022-10-31T01:57:36.464Z,50.01
2022-10-31T02:04:00.685Z,49.81
2022-10-31T02:10:24.944Z,49.66
2022-10-31T02:16:49.225Z,49.79
2022-10-31T02:23:19.371Z,49.73
2022-10-31T02:29:45.448Z,49.71
2022-10-31T02:36:07.188Z,49.65
2022-10-31T02:42:42.592Z,49.64
2022-10-31T02:49:07.058Z,49.62
2022-10-31T02:55:31.270Z,49.49
2022-10-31T03:02:17.009Z,49.52
2022-10-31T03:08:49.593Z,49.56
2022-10-31T03:15:22.862Z,49.74
2022-10-31T03:21:52.960Z,49.45
2022-10-31T03:34:41.482Z,49.44
2022-10-31T03:41:05.883Z,49.45
2022-10-31T03:47:30.099Z,49.35
2022-10-31T03:53:57.191Z,49.33
2022-10-31T04:00:33.705Z,49.35
2022-10-31T04:06:57.954Z,49.17
2022-10-31T04:13:22.447Z,49.05
2022-10-31T04:19:46.663Z,49.19
2022-10-31T04:26:10.992Z,49.12
2022-10-31T04:32:35.190Z,49.03
2022-10-31T04:38:59.415Z,49.01
2022-10-31T04:45:29.595Z,48.85
2022-10-31T04:51:53.869Z,48.99
2022-10-31T04:58:27.090Z,49.10
2022-10-31T05:04:51.282Z,49.01
2022-10-31T05:11:15.621Z,48.94
2022-10-31T05:17:40.001Z,48.86
2022-10-31T05:24:09.853Z,48.92
2022-10-31T05:30:33.999Z,48.86
2022-10-31T05:36:58.270Z,48.76
2022-10-31T05:43:15.135Z,48.74
2022-10-31T05:49:32.317Z,48.95
2022-10-31T05:55:56.584Z,48.70
2022-10-31T06:02:21.009Z,48.83
2022-10-31T06:08:45.416Z,48.72
2022-10-31T06:15:09.703Z,48.83
2022-10-31T06:21:33.907Z,48.65
2022-10-31T06:27:58.675Z,48.53
2022-10-31T06:34:22.946Z,48.56
2022-10-31T06:40:47.367Z,48.59
2022-10-31T06:47:21.131Z,48.52
2022-10-31T06:53:54.362Z,48.36
2022-10-31T07:00:18.621Z,48.45
2022-10-31T07:06:42.940Z,48.46
2022-10-31T07:13:07.250Z,48.42
2022-10-31T07:19:31.449Z,48.40
2022-10-31T07:25:55.851Z,48.34
2022-10-31T07:32:20.079Z,48.35
2022-10-31T07:38:50.060Z,48.25
2022-10-31T07:45:14.364Z,48.26
2022-10-31T07:51:54.291Z,48.36
2022-10-31T07:58:17.136Z,48.42
2022-10-31T08:04:41.420Z,48.31
2022-10-31T08:11:14.604Z,48.12
2022-10-31T08:17:38.843Z,48.16
2022-10-31T08:24:03.257Z,48.23
2022-10-31T08:30:27.541Z,48.23
2022-10-31T08:36:51.952Z,47.99
2022-10-31T08:43:22.335Z,48.29
2022-10-31T08:49:46.619Z,48.31
2022-10-31T08:56:10.851Z,48.27
2022-10-31T09:02:35.052Z,48.23
2022-10-31T09:09:02.106Z,48.30
2022-10-31T09:15:26.321Z,48.51
2022-10-31T09:21:50.545Z,48.31
2022-10-31T09:28:14.852Z,48.28
2022-10-31T09:34:39.042Z,48.47
2022-10-31T09:41:03.362Z,48.40
2022-10-31T09:47:39.685Z,48.35
2022-10-31T09:54:25.284Z,48.56
2022-10-31T10:00:49.792Z,48.46
2022-10-31T10:07:17.116Z,48.41
2022-10-31T10:13:43.259Z,48.61
2022-10-31T10:20:32.034Z,48.93
2022-10-31T10:26:59.416Z,48.95
2022-10-31T10:33:29.452Z,48.63
2022-10-31T10:39:53.877Z,48.86
2022-10-31T10:46:16.491Z,48.70
2022-10-31T10:52:55.705Z,49.22
2022-10-31T10:59:20.112Z,49.24
2022-10-31T11:05:44.488Z,49.22
2022-10-31T11:12:08.694Z,49.01
2022-10-31T11:18:38.807Z,49.28
2022-10-31T11:25:05.949Z,49.34
2022-10-31T11:31:30.243Z,49.43
2022-10-31T11:37:54.539Z,49.34
2022-10-31T11:44:18.754Z,49.50
2022-10-31T11:50:42.995Z,49.61
2022-10-31T11:57:07.287Z,49.58
2022-10-31T12:03:31.483Z,49.59
2022-10-31T12:09:55.782Z,49.84
2022-10-31T12:16:20.118Z,49.71
2022-10-31T12:22:50.432Z,49.61
2022-10-31T12:29:36.096Z,49.53
2022-10-31T12:36:29.991Z,49.57
2022-10-31T12:42:54.226Z,49.83
2022-10-31T12:49:17.169Z,49.71
2022-10-31T12:56:08.847Z,49.87
2022-10-31T13:02:36.006Z,50.04
2022-10-31T13:09:09.389Z,49.98
2022-10-31T13:15:36.625Z,49.85
2022-10-31T13:22:01.143Z,50.04
2022-10-31T13:28:47.120Z,50.08
2022-10-31T13:35:23.567Z,50.30
2022-10-31T13:41:53.797Z,50.23
2022-10-31T13:48:39.328Z,50.26
2022-10-31T13:55:06.198Z,50.27
2022-10-31T14:01:32.790Z,50.36
2022-10-31T14:08:03.366Z,50.58
2022-10-31T14:14:31.160Z,50.67
2022-10-31T14:21:01.341Z,50.61
2022-10-31T14:27:25.701Z,50.67
2022-10-31T14:34:01.773Z,50.82
2022-10-31T14:40:44.502Z,50.80
2022-10-31T14:47:17.490Z,50.85
2022-10-31T14:53:41.798Z,50.76
2022-10-31T15:00:11.737Z,50.99
2022-10-31T15:06:36.058Z,51.02
2022-10-31T15:13:05.911Z,51.14
2022-10-31T15:19:38.927Z,51.26
2022-10-31T15:26:03.201Z,51.22
2022-10-31T15:32:36.146Z,51.39
2022-10-31T15:39:00.432Z,51.42
2022-10-31T15:45:24.731Z,51.44
2022-10-31T15:51:54.126Z,51.43
2022-10-31T15:58:21.226Z,51.69
2022-10-31T16:04:54.580Z,51.71
2022-10-31T16:11:24.881Z,51.72
2022-10-31T16:17:49.240Z,51.89
2022-10-31T16:24:13.435Z,52.00
2022-10-31T16:30:45.420Z,52.06
2022-10-31T16:37:30.346Z,52.34
2022-10-31T16:43:54.631Z,52.04
2022-10-31T16:50:19.142Z,52.27
2022-10-31T16:56:43.371Z,52.10
2022-10-31T17:03:07.693Z,52.39
2022-10-31T17:09:32.045Z,52.26
2022-10-31T17:15:56.269Z,52.36
2022-10-31T17:22:20.751Z,52.42
2022-10-31T17:28:44.969Z,52.36
2022-10-31T17:35:09.212Z,52.46
2022-10-31T17:41:33.538Z,52.34
2022-10-31T17:47:57.884Z,52.52
2022-10-31T17:54:22.147Z,52.65
2022-10-31T18:00:50.389Z,52.58
2022-10-31T18:07:10.800Z,52.47
2022-10-31T18:13:35.142Z,52.64
2022-10-31T18:19:58.932Z,52.88
2022-10-31T18:26:23.171Z,52.76
2022-10-31T18:32:47.419Z,52.93
2022-10-31T18:39:11.696Z,52.77
2022-10-31T18:45:54.995Z,52.67
2022-10-31T18:52:20.199Z,52.98
2022-10-31T18:58:44.444Z,52.99
2022-10-31T19:05:08.708Z,53.04
2022-10-31T19:11:33.047Z,53.20
2022-10-31T19:17:47.119Z,53.04
2022-10-31T19:24:11.454Z,53.22
2022-10-31T19:30:35.724Z,53.18
2022-10-31T19:36:59.908Z,53.40
2022-10-31T19:49:53.380Z,53.18
2022-10-31T19:56:17.594Z,53.28
2022-10-31T20:02:41.976Z,53.35
2022-10-31T20:09:06.335Z,53.39
2022-10-31T20:15:30.603Z,53.44
2022-10-31T20:21:54.911Z,53.74
2022-10-31T20:28:19.450Z,53.55
2022-10-31T20:34:43.710Z,53.56
2022-10-31T20:41:08.176Z,53.82
2022-10-31T20:47:32.376Z,53.68
2022-10-31T20:53:56.574Z,53.78
2022-10-31T21:00:20.878Z,53.77
2022-10-31T21:06:49.271Z,53.74
2022-10-31T21:13:14.035Z,53.83
2022-10-31T21:19:38.215Z,53.85
2022-10-31T21:26:02.388Z,53.79
2022-10-31T21:32:26.625Z,53.87
2022-10-31T21:38:50.976Z,53.86
2022-10-31T21:45:15.157Z,53.86
2022-10-31T21:51:39.311Z,54.13
2022-10-31T21:58:03.945Z,54.05
2022-10-31T22:04:28.500Z,53.99
2022-10-31T22:10:53.234Z,53.94
2022-10-31T22:17:17.560Z,54.00
2022-10-31T22:23:41.837Z,54.03
2022-10-31T22:30:06.025Z,53.98
2022-10-31T22:36:30.289Z,54.06
2022-10-31T22:42:54.528Z,54.21
2022-10-31T22:49:18.912Z,54.12
2022-10-31T22:55:43.134Z,54.03
2022-10-31T23:02:08.617Z,53.68
2022-10-31T23:08:35.813Z,53.71
2022-10-31T23:14:59.887Z,53.60
2022-10-31T23:21:24.241Z,53.66
2022-10-31T23:27:51.211Z,53.73
2022-10-31T23:34:15.409Z,53.80
2022-10-31T23:40:40.799Z,53.79
2022-10-31T23:47:05.034Z,53.88
2022-10-31T23:53:29.303Z,53.93
2022-10-31T23:59:53.609Z,54.07
